sensor_id;sensor_type;location;lat;lon;timestamp;pressure;altitude;pressure_sealevel;temperature;humidity
64792;BME280;51226;47.504;19.074;2023-12-20T00:00:01;100479.31;;;1.48;77.06
64792;BME280;51226;47.504;19.074;2023-12-20T00:03:06;100477.47;;;1.35;77.85
64792;BME280;51226;47.504;19.074;2023-12-20T00:06:10;100462.97;;;1.36;77.27
64792;BME280;51226;47.504;19.074;2023-12-20T00:09:12;100459.00;;;1.17;78.18
64792;BME280;51226;47.504;19.074;2023-12-20T00:12:16;100460.56;;;1.27;77.25
64792;BME280;51226;47.504;19.074;2023-12-20T00:15:18;100464.63;;;1.35;76.88
64792;BME280;51226;47.504;19.074;2023-12-20T00:18:22;100455.72;;;1.42;76.62
64792;BME280;51226;47.504;19.074;2023-12-20T00:21:25;100450.28;;;1.49;76.38
64792;BME280;51226;47.504;19.074;2023-12-20T00:24:29;100445.66;;;1.45;76.76
64792;BME280;51226;47.504;19.074;2023-12-20T00:27:32;100443.41;;;1.38;77.10
64792;BME280;51226;47.504;19.074;2023-12-20T00:30:35;100439.75;;;1.46;76.53
64792;BME280;51226;47.504;19.074;2023-12-20T00:33:38;100441.63;;;1.37;77.06
64792;BME280;51226;47.504;19.074;2023-12-20T00:36:43;100440.84;;;1.38;76.81
64792;BME280;51226;47.504;19.074;2023-12-20T00:39:46;100426.31;;;1.38;76.39
64792;BME280;51226;47.504;19.074;2023-12-20T00:42:49;100412.38;;;1.46;75.78
64792;BME280;51226;47.504;19.074;2023-12-20T00:45:52;100410.69;;;1.47;76.07
64792;BME280;51226;47.504;19.074;2023-12-20T00:48:55;100414.44;;;1.17;77.37
64792;BME280;51226;47.504;19.074;2023-12-20T00:51:57;100399.91;;;1.05;78.00
64792;BME280;51226;47.504;19.074;2023-12-20T00:55:01;100391.00;;;1.12;77.83
64792;BME280;51226;47.504;19.074;2023-12-20T00:58:04;100381.28;;;1.32;76.76
64792;BME280;51226;47.504;19.074;2023-12-20T01:01:07;100389.41;;;1.14;77.48
64792;BME280;51226;47.504;19.074;2023-12-20T01:04:10;100387.97;;;1.18;76.85
64792;BME280;51226;47.504;19.074;2023-12-20T01:07:14;100382.00;;;1.07;77.58
64792;BME280;51226;47.504;19.074;2023-12-20T01:10:16;100379.63;;;1.32;76.24
64792;BME280;51226;47.504;19.074;2023-12-20T01:13:20;100377.47;;;1.26;76.54
64792;BME280;51226;47.504;19.074;2023-12-20T01:16:25;100384.19;;;1.24;76.39
64792;BME280;51226;47.504;19.074;2023-12-20T01:19:28;100367.31;;;1.28;76.20
64792;BME280;51226;47.504;19.074;2023-12-20T01:22:32;100374.12;;;1.16;76.92
64792;BME280;51226;47.504;19.074;2023-12-20T01:25:35;100360.38;;;1.15;76.91
64792;BME280;51226;47.504;19.074;2023-12-20T01:28:39;100361.84;;;1.23;76.91
64792;BME280;51226;47.504;19.074;2023-12-20T01:31:42;100349.09;;;1.13;76.95
64792;BME280;51226;47.504;19.074;2023-12-20T01:34:45;100347.66;;;1.17;76.71
64792;BME280;51226;47.504;19.074;2023-12-20T01:37:48;100347.22;;;1.22;76.76
64792;BME280;51226;47.504;19.074;2023-12-20T01:40:51;100334.25;;;1.21;76.94
64792;BME280;51226;47.504;19.074;2023-12-20T01:43:54;100331.81;;;1.22;76.84
64792;BME280;51226;47.504;19.074;2023-12-20T01:46:57;100319.38;;;1.17;76.96
64792;BME280;51226;47.504;19.074;2023-12-20T01:50:01;100317.94;;;1.20;76.83
64792;BME280;51226;47.504;19.074;2023-12-20T01:53:07;100317.94;;;1.20;76.83
64792;BME280;51226;47.504;19.074;2023-12-20T01:56:12;100313.03;;;1.11;77.49
64792;BME280;51226;47.504;19.074;2023-12-20T01:59:15;100307.66;;;1.20;77.29
64792;BME280;51226;47.504;19.074;2023-12-20T02:02:19;100299.88;;;1.31;77.04
64792;BME280;51226;47.504;19.074;2023-12-20T02:05:23;100291.84;;;1.26;77.16
64792;BME280;51226;47.504;19.074;2023-12-20T02:08:27;100281.22;;;1.21;77.75
64792;BME280;51226;47.504;19.074;2023-12-20T02:11:30;100271.94;;;1.23;77.61
64792;BME280;51226;47.504;19.074;2023-12-20T02:14:33;100263.81;;;1.29;77.57
64792;BME280;51226;47.504;19.074;2023-12-20T02:17:36;100258.66;;;1.41;77.20
64792;BME280;51226;47.504;19.074;2023-12-20T02:20:41;100261.88;;;1.38;77.18
64792;BME280;51226;47.504;19.074;2023-12-20T02:23:44;100257.84;;;1.42;77.10
64792;BME280;51226;47.504;19.074;2023-12-20T02:26:47;100249.25;;;1.53;76.50
64792;BME280;51226;47.504;19.074;2023-12-20T02:29:51;100244.72;;;1.25;77.72
64792;BME280;51226;47.504;19.074;2023-12-20T02:32:54;100243.03;;;1.26;77.95
64792;BME280;51226;47.504;19.074;2023-12-20T02:35:57;100244.72;;;1.25;78.09
64792;BME280;51226;47.504;19.074;2023-12-20T02:39:00;100240.13;;;1.09;79.02
64792;BME280;51226;47.504;19.074;2023-12-20T02:42:03;100244.37;;;1.09;79.36
64792;BME280;51226;47.504;19.074;2023-12-20T02:45:07;100229.06;;;1.22;79.04
64792;BME280;51226;47.504;19.074;2023-12-20T02:48:09;100231.97;;;1.39;77.85
64792;BME280;51226;47.504;19.074;2023-12-20T02:51:13;100224.94;;;1.24;78.40
64792;BME280;51226;47.504;19.074;2023-12-20T02:54:15;100217.22;;;1.24;78.82
64792;BME280;51226;47.504;19.074;2023-12-20T02:57:18;100202.25;;;1.07;79.43
64792;BME280;51226;47.504;19.074;2023-12-20T03:00:21;100212.75;;;1.10;79.75
64792;BME280;51226;47.504;19.074;2023-12-20T03:03:25;100208.81;;;1.27;78.51
64792;BME280;51226;47.504;19.074;2023-12-20T03:06:27;100203.03;;;1.29;78.74
64792;BME280;51226;47.504;19.074;2023-12-20T03:09:31;100206.81;;;1.35;78.84
64792;BME280;51226;47.504;19.074;2023-12-20T03:12:53;100207.81;;;1.37;78.79
64792;BME280;51226;47.504;19.074;2023-12-20T03:15:56;100211.19;;;1.36;79.11
64792;BME280;51226;47.504;19.074;2023-12-20T03:18:59;100212.53;;;1.31;79.43
64792;BME280;51226;47.504;19.074;2023-12-20T03:22:03;100206.47;;;1.42;78.81
64792;BME280;51226;47.504;19.074;2023-12-20T03:25:05;100213.87;;;1.25;79.33
64792;BME280;51226;47.504;19.074;2023-12-20T03:28:09;100212.09;;;1.24;79.75
64792;BME280;51226;47.504;19.074;2023-12-20T03:31:11;100209.50;;;1.24;79.55
64792;BME280;51226;47.504;19.074;2023-12-20T03:34:15;100210.28;;;1.35;79.09
64792;BME280;51226;47.504;19.074;2023-12-20T03:37:18;100210.28;;;1.35;78.95
64792;BME280;51226;47.504;19.074;2023-12-20T03:40:21;100214.06;;;1.28;79.23
64792;BME280;51226;47.504;19.074;2023-12-20T03:43:25;100206.25;;;1.27;79.60
64792;BME280;51226;47.504;19.074;2023-12-20T03:46:28;100205.34;;;1.38;79.23
64792;BME280;51226;47.504;19.074;2023-12-20T03:49:30;100196.53;;;1.46;78.68
64792;BME280;51226;47.504;19.074;2023-12-20T03:52:34;100213.19;;;1.40;78.49
64792;BME280;51226;47.504;19.074;2023-12-20T03:55:36;100203.34;;;1.46;78.14
64792;BME280;51226;47.504;19.074;2023-12-20T03:58:39;100202.75;;;1.50;78.24
64792;BME280;51226;47.504;19.074;2023-12-20T04:01:44;100205.00;;;1.57;78.00
64792;BME280;51226;47.504;19.074;2023-12-20T04:04:48;100192.97;;;1.44;78.31
64792;BME280;51226;47.504;19.074;2023-12-20T04:07:50;100195.50;;;1.56;77.67
64792;BME280;51226;47.504;19.074;2023-12-20T04:10:54;100182.87;;;1.59;77.37
64792;BME280;51226;47.504;19.074;2023-12-20T04:13:56;100183.53;;;1.57;77.74
64792;BME280;51226;47.504;19.074;2023-12-20T04:16:59;100180.22;;;1.46;78.41
64792;BME280;51226;47.504;19.074;2023-12-20T04:20:02;100185.47;;;1.47;78.46
64792;BME280;51226;47.504;19.074;2023-12-20T04:23:06;100188.56;;;1.55;78.38
64792;BME280;51226;47.504;19.074;2023-12-20T04:26:28;100188.78;;;1.58;78.29
64792;BME280;51226;47.504;19.074;2023-12-20T04:29:32;100167.47;;;1.47;78.29
64792;BME280;51226;47.504;19.074;2023-12-20T04:32:34;100169.69;;;1.55;78.27
64792;BME280;51226;47.504;19.074;2023-12-20T04:35:38;100165.69;;;1.46;78.76
64792;BME280;51226;47.504;19.074;2023-12-20T04:38:40;100163.16;;;1.35;79.44
64792;BME280;51226;47.504;19.074;2023-12-20T04:41:43;100149.31;;;1.33;79.58
64792;BME280;51226;47.504;19.074;2023-12-20T04:44:46;100145.41;;;1.63;77.51
64792;BME280;51226;47.504;19.074;2023-12-20T04:47:49;100148.47;;;1.57;77.74
64792;BME280;51226;47.504;19.074;2023-12-20T04:50:52;100139.19;;;1.59;77.54
64792;BME280;51226;47.504;19.074;2023-12-20T04:53:55;100131.69;;;1.62;76.91
64792;BME280;51226;47.504;19.074;2023-12-20T04:56:58;100122.28;;;1.63;77.05
64792;BME280;51226;47.504;19.074;2023-12-20T05:00:01;100114.09;;;1.69;76.53
64792;BME280;51226;47.504;19.074;2023-12-20T05:03:04;100114.69;;;1.64;76.43
64792;BME280;51226;47.504;19.074;2023-12-20T05:06:07;100110.31;;;1.63;76.49
64792;BME280;51226;47.504;19.074;2023-12-20T05:09:10;100097.41;;;1.50;77.38
64792;BME280;51226;47.504;19.074;2023-12-20T05:12:13;100094.34;;;1.67;76.61
64792;BME280;51226;47.504;19.074;2023-12-20T05:15:15;100102.22;;;1.57;77.19
64792;BME280;51226;47.504;19.074;2023-12-20T05:18:19;100091.94;;;1.57;76.93
64792;BME280;51226;47.504;19.074;2023-12-20T05:21:22;100083.19;;;1.55;77.32
64792;BME280;51226;47.504;19.074;2023-12-20T05:24:26;100072.41;;;1.47;77.70
64792;BME280;51226;47.504;19.074;2023-12-20T05:27:28;100075.53;;;1.43;78.17
64792;BME280;51226;47.504;19.074;2023-12-20T05:30:31;100080.22;;;1.49;77.72
64792;BME280;51226;47.504;19.074;2023-12-20T05:33:34;100085.47;;;1.51;77.67
64792;BME280;51226;47.504;19.074;2023-12-20T05:36:37;100102.44;;;1.48;77.53
64792;BME280;51226;47.504;19.074;2023-12-20T05:39:41;100115.22;;;1.35;78.28
64792;BME280;51226;47.504;19.074;2023-12-20T05:42:46;100116.69;;;1.32;78.72
64792;BME280;51226;47.504;19.074;2023-12-20T05:45:49;100107.78;;;1.52;77.40
64792;BME280;51226;47.504;19.074;2023-12-20T05:48:52;100090.91;;;1.18;78.35
64792;BME280;51226;47.504;19.074;2023-12-20T05:51:55;100079.03;;;0.83;79.31
64792;BME280;51226;47.504;19.074;2023-12-20T05:54:58;100075.03;;;0.75;80.45
64792;BME280;51226;47.504;19.074;2023-12-20T05:58:03;100073.69;;;0.68;81.13
64792;BME280;51226;47.504;19.074;2023-12-20T06:01:08;100066.47;;;0.63;81.47
64792;BME280;51226;47.504;19.074;2023-12-20T06:04:11;100069.03;;;0.63;81.74
64792;BME280;51226;47.504;19.074;2023-12-20T06:07:15;100053.97;;;0.67;81.37
64792;BME280;51226;47.504;19.074;2023-12-20T06:10:18;100062.78;;;0.59;82.02
64792;BME280;51226;47.504;19.074;2023-12-20T06:13:21;100058.75;;;0.63;82.06
64792;BME280;51226;47.504;19.074;2023-12-20T06:16:24;100050.06;;;0.61;82.70
64792;BME280;51226;47.504;19.074;2023-12-20T06:19:27;100050.19;;;0.62;83.11
64792;BME280;51226;47.504;19.074;2023-12-20T06:22:30;100050.84;;;0.60;83.47
64792;BME280;51226;47.504;19.074;2023-12-20T06:25:33;100067.03;;;0.59;83.77
64792;BME280;51226;47.504;19.074;2023-12-20T06:28:37;100059.75;;;0.65;83.80
64792;BME280;51226;47.504;19.074;2023-12-20T06:31:43;100051.81;;;0.73;83.47
64792;BME280;51226;47.504;19.074;2023-12-20T06:34:46;100039.78;;;0.72;83.74
64792;BME280;51226;47.504;19.074;2023-12-20T06:37:49;100053.59;;;0.74;83.80
64792;BME280;51226;47.504;19.074;2023-12-20T06:40:53;100066.66;;;0.78;84.04
64792;BME280;51226;47.504;19.074;2023-12-20T06:43:56;100068.44;;;0.90;83.43
64792;BME280;51226;47.504;19.074;2023-12-20T06:46:59;100084.63;;;1.26;81.97
64792;BME280;51226;47.504;19.074;2023-12-20T06:50:02;100096.56;;;1.38;81.27
64792;BME280;51226;47.504;19.074;2023-12-20T06:53:06;100106.16;;;1.40;81.60
64792;BME280;51226;47.504;19.074;2023-12-20T06:56:12;100103.78;;;1.43;81.33
64792;BME280;51226;47.504;19.074;2023-12-20T06:59:20;100105.97;;;1.62;80.59
64792;BME280;51226;47.504;19.074;2023-12-20T07:02:23;100115.22;;;1.72;79.92
64792;BME280;51226;47.504;19.074;2023-12-20T07:05:26;100122.28;;;1.88;78.97
64792;BME280;51226;47.504;19.074;2023-12-20T07:08:29;100108.19;;;1.70;79.77
64792;BME280;51226;47.504;19.074;2023-12-20T07:11:32;100109.91;;;1.57;80.55
64792;BME280;51226;47.504;19.074;2023-12-20T07:14:35;100110.41;;;1.90;78.92
64792;BME280;51226;47.504;19.074;2023-12-20T07:17:38;100106.38;;;1.94;78.37
64792;BME280;51226;47.504;19.074;2023-12-20T07:20:41;100097.22;;;1.97;78.35
64792;BME280;51226;47.504;19.074;2023-12-20T07:23:46;100092.78;;;2.08;77.44
64792;BME280;51226;47.504;19.074;2023-12-20T07:26:49;100098.88;;;1.97;78.04
64792;BME280;51226;47.504;19.074;2023-12-20T07:29:53;100095.84;;;2.02;77.68
64792;BME280;51226;47.504;19.074;2023-12-20T07:32:56;100093.63;;;1.95;78.00
64792;BME280;51226;47.504;19.074;2023-12-20T07:36:00;100111.94;;;2.00;77.58
64792;BME280;51226;47.504;19.074;2023-12-20T07:39:03;100106.34;;;2.06;77.50
64792;BME280;51226;47.504;19.074;2023-12-20T07:42:09;100110.97;;;2.11;77.31
64792;BME280;51226;47.504;19.074;2023-12-20T07:45:12;100106.94;;;2.15;77.13
64792;BME280;51226;47.504;19.074;2023-12-20T07:48:15;100114.44;;;2.12;77.07
64792;BME280;51226;47.504;19.074;2023-12-20T07:51:18;100105.53;;;2.07;76.91
64792;BME280;51226;47.504;19.074;2023-12-20T07:54:23;100106.28;;;1.92;77.80
64792;BME280;51226;47.504;19.074;2023-12-20T07:57:29;100096.34;;;1.85;78.20
64792;BME280;51226;47.504;19.074;2023-12-20T08:00:32;100096.00;;;1.92;77.38
64792;BME280;51226;47.504;19.074;2023-12-20T08:03:36;100080.00;;;2.10;76.50
64792;BME280;51226;47.504;19.074;2023-12-20T08:06:39;100083.34;;;1.95;76.93
64792;BME280;51226;47.504;19.074;2023-12-20T08:09:42;100081.97;;;2.00;76.88
64792;BME280;51226;47.504;19.074;2023-12-20T08:12:46;100091.06;;;2.09;76.57
64792;BME280;51226;47.504;19.074;2023-12-20T08:15:49;100076.59;;;2.22;76.08
64792;BME280;51226;47.504;19.074;2023-12-20T08:18:52;100075.31;;;2.29;75.38
64792;BME280;51226;47.504;19.074;2023-12-20T08:21:56;100071.69;;;2.14;76.25
64792;BME280;51226;47.504;19.074;2023-12-20T08:24:59;100072.13;;;2.20;75.02
64792;BME280;51226;47.504;19.074;2023-12-20T08:28:04;100079.62;;;2.17;75.54
64792;BME280;51226;47.504;19.074;2023-12-20T08:31:13;100081.59;;;2.08;76.32
64792;BME280;51226;47.504;19.074;2023-12-20T08:34:17;100077.25;;;2.20;75.84
64792;BME280;51226;47.504;19.074;2023-12-20T08:37:20;100079.62;;;2.17;76.06
64792;BME280;51226;47.504;19.074;2023-12-20T08:40:23;100084.56;;;2.27;75.60
64792;BME280;51226;47.504;19.074;2023-12-20T08:43:26;100091.72;;;2.31;75.19
64792;BME280;51226;47.504;19.074;2023-12-20T08:46:29;100082.03;;;2.40;74.99
64792;BME280;51226;47.504;19.074;2023-12-20T08:49:32;100073.72;;;2.45;75.81
64792;BME280;51226;47.504;19.074;2023-12-20T08:52:35;100095.31;;;2.60;74.20
64792;BME280;51226;47.504;19.074;2023-12-20T08:55:39;100091.84;;;2.73;73.42
64792;BME280;51226;47.504;19.074;2023-12-20T08:58:43;100086.19;;;2.78;73.28
64792;BME280;51226;47.504;19.074;2023-12-20T09:01:46;100081.84;;;2.77;72.67
64792;BME280;51226;47.504;19.074;2023-12-20T09:04:51;100073.12;;;2.75;73.04
64792;BME280;51226;47.504;19.074;2023-12-20T09:07:54;100081.44;;;2.85;72.69
64792;BME280;51226;47.504;19.074;2023-12-20T09:10:58;100091.75;;;2.85;72.67
64792;BME280;51226;47.504;19.074;2023-12-20T09:14:01;100089.84;;;2.82;73.35
64792;BME280;51226;47.504;19.074;2023-12-20T09:17:04;100085.97;;;3.02;72.49
64792;BME280;51226;47.504;19.074;2023-12-20T09:20:09;100073.41;;;2.93;72.40
64792;BME280;51226;47.504;19.074;2023-12-20T09:23:14;100077.03;;;3.10;72.55
64792;BME280;51226;47.504;19.074;2023-12-20T09:26:17;100076.06;;;3.37;71.60
64792;BME280;51226;47.504;19.074;2023-12-20T09:29:20;100075.88;;;3.62;69.81
64792;BME280;51226;47.504;19.074;2023-12-20T09:32:23;100071.00;;;3.66;69.83
64792;BME280;51226;47.504;19.074;2023-12-20T09:35:26;100059.59;;;3.91;69.24
64792;BME280;51226;47.504;19.074;2023-12-20T09:38:31;100048.75;;;4.26;67.93
64792;BME280;51226;47.504;19.074;2023-12-20T09:41:37;100038.03;;;4.50;65.71
64792;BME280;51226;47.504;19.074;2023-12-20T09:44:45;100035.38;;;4.34;66.51
64792;BME280;51226;47.504;19.074;2023-12-20T09:47:50;100029.69;;;4.39;66.71
64792;BME280;51226;47.504;19.074;2023-12-20T09:50:56;100030.22;;;4.80;65.79
64792;BME280;51226;47.504;19.074;2023-12-20T09:54:00;100034.06;;;5.52;63.85
64792;BME280;51226;47.504;19.074;2023-12-20T09:57:05;100024.66;;;5.87;61.89
64792;BME280;51226;47.504;19.074;2023-12-20T10:00:13;100009.78;;;6.18;60.74
64792;BME280;51226;47.504;19.074;2023-12-20T10:03:17;100001.12;;;6.71;59.96
64792;BME280;51226;47.504;19.074;2023-12-20T10:06:21;100004.97;;;7.96;56.83
64792;BME280;51226;47.504;19.074;2023-12-20T10:09:26;100000.25;;;9.17;52.80
64792;BME280;51226;47.504;19.074;2023-12-20T10:12:31;99990.94;;;10.49;48.89
64792;BME280;51226;47.504;19.074;2023-12-20T10:15:35;99978.28;;;11.21;46.26
64792;BME280;51226;47.504;19.074;2023-12-20T10:18:39;99982.00;;;12.28;44.09
64792;BME280;51226;47.504;19.074;2023-12-20T10:21:42;99972.31;;;12.98;42.00
64792;BME280;51226;47.504;19.074;2023-12-20T10:24:47;99970.13;;;13.18;41.56
64792;BME280;51226;47.504;19.074;2023-12-20T10:27:51;99964.50;;;13.89;40.33
64792;BME280;51226;47.504;19.074;2023-12-20T10:31:26;99954.53;;;14.20;39.90
64792;BME280;51226;47.504;19.074;2023-12-20T10:34:32;99923.13;;;14.23;38.95
64792;BME280;51226;47.504;19.074;2023-12-20T10:37:38;99925.69;;;14.20;39.52
64792;BME280;51226;47.504;19.074;2023-12-20T10:40:42;99917.94;;;14.30;39.03
64792;BME280;51226;47.504;19.074;2023-12-20T10:43:46;99913.19;;;14.60;39.34
64792;BME280;51226;47.504;19.074;2023-12-20T10:46:49;99911.25;;;15.97;36.90
64792;BME280;51226;47.504;19.074;2023-12-20T10:49:54;99904.94;;;17.26;34.29
64792;BME280;51226;47.504;19.074;2023-12-20T10:52:58;99893.59;;;18.53;31.88
64792;BME280;51226;47.504;19.074;2023-12-20T10:56:03;99901.00;;;19.70;29.97
64792;BME280;51226;47.504;19.074;2023-12-20T10:59:08;99881.66;;;20.61;28.63
64792;BME280;51226;47.504;19.074;2023-12-20T11:02:13;99882.19;;;20.94;28.04
64792;BME280;51226;47.504;19.074;2023-12-20T11:05:40;99882.06;;;21.69;26.72
64792;BME280;51226;47.504;19.074;2023-12-20T11:12:39;99883.25;;;21.48;27.29
64792;BME280;51226;47.504;19.074;2023-12-20T11:15:44;99876.09;;;22.09;25.65
64792;BME280;51226;47.504;19.074;2023-12-20T11:18:47;99867.19;;;21.57;26.71
64792;BME280;51226;47.504;19.074;2023-12-20T11:21:50;99849.25;;;22.23;26.29
64792;BME280;51226;47.504;19.074;2023-12-20T11:24:54;99843.56;;;22.88;25.32
64792;BME280;51226;47.504;19.074;2023-12-20T11:28:08;99832.44;;;23.50;24.53
64792;BME280;51226;47.504;19.074;2023-12-20T11:31:14;99826.56;;;23.73;23.89
64792;BME280;51226;47.504;19.074;2023-12-20T11:34:17;99812.84;;;23.54;24.12
64792;BME280;51226;47.504;19.074;2023-12-20T11:37:20;99805.94;;;22.66;25.00
64792;BME280;51226;47.504;19.074;2023-12-20T11:40:24;99796.94;;;21.23;26.69
64792;BME280;51226;47.504;19.074;2023-12-20T11:43:38;99807.16;;;18.94;29.96
64792;BME280;51226;47.504;19.074;2023-12-20T11:46:44;99810.06;;;17.86;31.79
64792;BME280;51226;47.504;19.074;2023-12-20T11:49:47;99819.75;;;17.82;32.80
64792;BME280;51226;47.504;19.074;2023-12-20T11:53:00;99824.09;;;18.40;32.09
64792;BME280;51226;47.504;19.074;2023-12-20T11:56:05;99824.03;;;18.52;31.26
64792;BME280;51226;47.504;19.074;2023-12-20T11:59:08;99802.78;;;16.44;34.21
64792;BME280;51226;47.504;19.074;2023-12-20T12:02:27;99820.28;;;14.49;37.78
64792;BME280;51226;47.504;19.074;2023-12-20T12:05:33;99820.56;;;13.50;40.13
64792;BME280;51226;47.504;19.074;2023-12-20T12:08:38;99814.88;;;12.79;42.02
64792;BME280;51226;47.504;19.074;2023-12-20T12:11:42;99809.47;;;13.65;41.13
64792;BME280;51226;47.504;19.074;2023-12-20T12:14:45;99803.53;;;13.28;42.08
64792;BME280;51226;47.504;19.074;2023-12-20T12:17:56;99800.72;;;12.68;43.22
64792;BME280;51226;47.504;19.074;2023-12-20T12:21:02;99796.19;;;12.18;44.90
64792;BME280;51226;47.504;19.074;2023-12-20T12:24:15;99804.22;;;11.90;46.42
64792;BME280;51226;47.504;19.074;2023-12-20T12:27:17;99810.97;;;11.45;47.35
64792;BME280;51226;47.504;19.074;2023-12-20T12:30:20;99817.56;;;10.97;48.90
64792;BME280;51226;47.504;19.074;2023-12-20T12:33:25;99816.44;;;10.87;50.17
64792;BME280;51226;47.504;19.074;2023-12-20T12:36:29;99811.06;;;10.81;50.85
64792;BME280;51226;47.504;19.074;2023-12-20T12:39:32;99818.13;;;10.55;51.53
64792;BME280;51226;47.504;19.074;2023-12-20T12:42:36;99816.31;;;10.24;52.63
64792;BME280;51226;47.504;19.074;2023-12-20T12:45:39;99817.13;;;9.94;54.16
64792;BME280;51226;47.504;19.074;2023-12-20T12:48:42;99818.03;;;9.67;55.00
64792;BME280;51226;47.504;19.074;2023-12-20T12:51:48;99821.59;;;9.43;55.85
64792;BME280;51226;47.504;19.074;2023-12-20T12:54:51;99825.87;;;9.41;56.43
64792;BME280;51226;47.504;19.074;2023-12-20T12:57:54;99822.97;;;9.32;56.75
64792;BME280;51226;47.504;19.074;2023-12-20T13:00:58;99814.97;;;9.26;56.79
64792;BME280;51226;47.504;19.074;2023-12-20T13:04:01;99820.00;;;9.21;56.90
64792;BME280;51226;47.504;19.074;2023-12-20T13:07:07;99824.22;;;8.92;57.85
64792;BME280;51226;47.504;19.074;2023-12-20T13:10:13;99816.50;;;8.95;58.09
64792;BME280;51226;47.504;19.074;2023-12-20T13:13:19;99820.53;;;8.63;58.90
64792;BME280;51226;47.504;19.074;2023-12-20T13:16:22;99826.19;;;8.51;59.86
64792;BME280;51226;47.504;19.074;2023-12-20T13:19:25;99825.66;;;8.37;60.08
64792;BME280;51226;47.504;19.074;2023-12-20T13:22:29;99827.53;;;8.19;60.35
64792;BME280;51226;47.504;19.074;2023-12-20T13:25:32;99820.44;;;8.14;60.89
64792;BME280;51226;47.504;19.074;2023-12-20T13:28:38;99821.50;;;7.97;61.12
64792;BME280;51226;47.504;19.074;2023-12-20T13:31:42;99815.19;;;7.90;61.76
64792;BME280;51226;47.504;19.074;2023-12-20T13:34:45;99818.00;;;7.96;61.83
64792;BME280;51226;47.504;19.074;2023-12-20T13:37:49;99821.91;;;7.85;61.92
64792;BME280;51226;47.504;19.074;2023-12-20T13:40:52;99823.13;;;7.72;62.19
64792;BME280;51226;47.504;19.074;2023-12-20T13:43:55;99811.91;;;7.73;62.03
64792;BME280;51226;47.504;19.074;2023-12-20T13:46:58;99813.22;;;7.62;62.67
64792;BME280;51226;47.504;19.074;2023-12-20T13:50:02;99808.78;;;7.38;63.04
64792;BME280;51226;47.504;19.074;2023-12-20T13:53:05;99803.34;;;7.32;63.28
64792;BME280;51226;47.504;19.074;2023-12-20T13:56:09;99801.88;;;7.18;63.70
64792;BME280;51226;47.504;19.074;2023-12-20T13:59:11;99805.66;;;7.26;63.36
64792;BME280;51226;47.504;19.074;2023-12-20T14:02:15;99803.94;;;7.05;64.02
64792;BME280;51226;47.504;19.074;2023-12-20T14:05:21;99812.34;;;7.00;64.36
64792;BME280;51226;47.504;19.074;2023-12-20T14:08:30;99801.72;;;6.94;64.84
64792;BME280;51226;47.504;19.074;2023-12-20T14:11:33;99800.56;;;6.87;65.09
64792;BME280;51226;47.504;19.074;2023-12-20T14:14:36;99800.06;;;6.96;65.21
64792;BME280;51226;47.504;19.074;2023-12-20T14:17:42;99799.72;;;6.88;65.31
64792;BME280;51226;47.504;19.074;2023-12-20T14:20:47;99816.97;;;7.07;65.02
64792;BME280;51226;47.504;19.074;2023-12-20T14:23:50;99832.97;;;7.18;64.51
64792;BME280;51226;47.504;19.074;2023-12-20T14:26:54;99816.44;;;6.95;64.96
64792;BME280;51226;47.504;19.074;2023-12-20T14:29:58;99812.91;;;6.93;65.32
64792;BME280;51226;47.504;19.074;2023-12-20T14:33:01;99814.19;;;6.83;65.53
64792;BME280;51226;47.504;19.074;2023-12-20T14:36:04;99807.34;;;6.83;65.87
64792;BME280;51226;47.504;19.074;2023-12-20T14:39:07;99813.75;;;6.72;65.99
64792;BME280;51226;47.504;19.074;2023-12-20T14:42:11;99815.78;;;6.79;66.27
64792;BME280;51226;47.504;19.074;2023-12-20T14:45:16;99811.44;;;6.78;66.87
64792;BME280;51226;47.504;19.074;2023-12-20T14:48:19;99821.59;;;6.74;67.26
64792;BME280;51226;47.504;19.074;2023-12-20T14:51:23;99827.72;;;6.95;66.69
64792;BME280;51226;47.504;19.074;2023-12-20T14:54:27;99820.81;;;6.76;66.94
64792;BME280;51226;47.504;19.074;2023-12-20T14:57:30;99818.22;;;6.76;67.10
64792;BME280;51226;47.504;19.074;2023-12-20T15:00:33;99823.47;;;6.78;67.20
64792;BME280;51226;47.504;19.074;2023-12-20T15:03:36;99840.69;;;6.76;67.34
64792;BME280;51226;47.504;19.074;2023-12-20T15:06:39;99848.37;;;6.74;67.08
64792;BME280;51226;47.504;19.074;2023-12-20T15:09:42;99843.13;;;6.73;67.31
64792;BME280;51226;47.504;19.074;2023-12-20T15:12:48;99847.84;;;6.62;67.82
64792;BME280;51226;47.504;19.074;2023-12-20T15:15:51;99848.66;;;6.61;67.45
64792;BME280;51226;47.504;19.074;2023-12-20T15:18:56;99855.25;;;6.54;67.70
64792;BME280;51226;47.504;19.074;2023-12-20T15:21:59;99864.97;;;6.58;67.58
64792;BME280;51226;47.504;19.074;2023-12-20T15:25:03;99877.78;;;6.55;67.69
64792;BME280;51226;47.504;19.074;2023-12-20T15:28:07;99879.66;;;6.59;67.32
64792;BME280;51226;47.504;19.074;2023-12-20T15:31:10;99887.28;;;6.56;67.38
64792;BME280;51226;47.504;19.074;2023-12-20T15:34:14;99893.66;;;6.63;67.09
64792;BME280;51226;47.504;19.074;2023-12-20T15:37:17;99883.53;;;6.49;67.43
64792;BME280;51226;47.504;19.074;2023-12-20T15:40:20;99890.97;;;6.42;67.52
64792;BME280;51226;47.504;19.074;2023-12-20T15:43:23;99888.78;;;6.51;67.73
64792;BME280;51226;47.504;19.074;2023-12-20T15:46:27;99893.41;;;6.39;67.92
64792;BME280;51226;47.504;19.074;2023-12-20T15:49:30;99901.91;;;6.36;67.95
64792;BME280;51226;47.504;19.074;2023-12-20T15:52:33;99895.41;;;6.26;68.13
64792;BME280;51226;47.504;19.074;2023-12-20T15:55:37;99897.97;;;6.25;68.52
64792;BME280;51226;47.504;19.074;2023-12-20T15:58:40;99907.00;;;6.15;68.57
64792;BME280;51226;47.504;19.074;2023-12-20T16:01:42;99905.44;;;6.19;68.61
64792;BME280;51226;47.504;19.074;2023-12-20T16:04:55;99920.59;;;6.11;68.86
64792;BME280;51226;47.504;19.074;2023-12-20T16:07:58;99912.34;;;6.20;69.06